sensor_id;sensor_type;location;lat;lon;timestamp;pressure;altitude;pressure_sealevel;temperature;humidity
7834;BME280;3962;42.696;23.354;2023-02-28T00:01:26;95630.41;;;7.50;100.00
7834;BME280;3962;42.696;23.354;2023-02-28T00:03:53;95622.72;;;7.47;100.00
7834;BME280;3962;42.696;23.354;2023-02-28T00:06:20;95637.66;;;7.37;100.00
7834;BME280;3962;42.696;23.354;2023-02-28T00:08:47;95642.69;;;7.29;100.00
7834;BME280;3962;42.696;23.354;2023-02-28T00:11:15;95645.56;;;7.26;100.00
7834;BME280;3962;42.696;23.354;2023-02-28T00:13:44;95651.34;;;7.20;100.00
7834;BME280;3962;42.696;23.354;2023-02-28T00:16:15;95643.38;;;7.09;100.00
7834;BME280;3962;42.696;23.354;2023-02-28T00:18:42;95649.13;;;7.03;100.00
7834;BME280;3962;42.696;23.354;2023-02-28T00:21:09;95652.13;;;6.99;100.00
7834;BME280;3962;42.696;23.354;2023-02-28T00:23:36;95661.16;;;6.97;100.00
7834;BME280;3962;42.696;23.354;2023-02-28T00:26:03;95660.41;;;6.95;100.00
7834;BME280;3962;42.696;23.354;2023-02-28T00:28:31;95661.28;;;6.95;100.00
7834;BME280;3962;42.696;23.354;2023-02-28T00:30:57;95671.75;;;6.97;100.00
7834;BME280;3962;42.696;23.354;2023-02-28T00:33:26;95661.63;;;6.91;100.00
7834;BME280;3962;42.696;23.354;2023-02-28T00:36:05;95664.38;;;6.89;100.00
7834;BME280;3962;42.696;23.354;2023-02-28T00:38:32;95669.75;;;6.88;100.00
7834;BME280;3962;42.696;23.354;2023-02-28T00:40:59;95659.78;;;6.80;100.00
7834;BME280;3962;42.696;23.354;2023-02-28T00:43:30;95667.56;;;6.71;100.00
7834;BME280;3962;42.696;23.354;2023-02-28T00:45:57;95656.53;;;6.77;100.00
7834;BME280;3962;42.696;23.354;2023-02-28T00:48:24;95650.28;;;6.78;100.00
7834;BME280;3962;42.696;23.354;2023-02-28T00:50:52;95638.81;;;6.66;100.00
7834;BME280;3962;42.696;23.354;2023-02-28T00:53:19;95651.31;;;6.64;100.00
7834;BME280;3962;42.696;23.354;2023-02-28T00:55:47;95645.66;;;6.58;100.00
7834;BME280;3962;42.696;23.354;2023-02-28T00:58:14;95650.31;;;6.54;100.00
7834;BME280;3962;42.696;23.354;2023-02-28T01:00:41;95641.09;;;6.60;100.00
7834;BME280;3962;42.696;23.354;2023-02-28T01:03:08;95643.00;;;6.58;100.00
7834;BME280;3962;42.696;23.354;2023-02-28T01:05:35;95654.50;;;6.57;100.00
7834;BME280;3962;42.696;23.354;2023-02-28T01:08:03;95650.47;;;6.64;100.00
7834;BME280;3962;42.696;23.354;2023-02-28T01:10:30;95660.94;;;6.65;100.00
7834;BME280;3962;42.696;23.354;2023-02-28T01:12:57;95656.78;;;6.50;100.00
7834;BME280;3962;42.696;23.354;2023-02-28T01:15:24;95643.56;;;6.50;100.00
7834;BME280;3962;42.696;23.354;2023-02-28T01:17:51;95633.91;;;6.38;100.00
7834;BME280;3962;42.696;23.354;2023-02-28T01:20:18;95636.44;;;6.40;100.00
7834;BME280;3962;42.696;23.354;2023-02-28T01:22:45;95646.56;;;6.46;100.00
7834;BME280;3962;42.696;23.354;2023-02-28T01:25:13;95649.19;;;6.46;100.00
7834;BME280;3962;42.696;23.354;2023-02-28T01:27:40;95634.03;;;6.37;100.00
7834;BME280;3962;42.696;23.354;2023-02-28T01:30:08;95640.47;;;6.33;100.00
7834;BME280;3962;42.696;23.354;2023-02-28T01:32:36;95636.78;;;6.35;100.00
7834;BME280;3962;42.696;23.354;2023-02-28T01:35:03;95639.56;;;6.34;100.00
7834;BME280;3962;42.696;23.354;2023-02-28T01:37:30;95640.63;;;6.31;100.00
7834;BME280;3962;42.696;23.354;2023-02-28T01:39:56;95641.44;;;6.32;100.00
7834;BME280;3962;42.696;23.354;2023-02-28T01:42:24;95642.75;;;6.26;100.00
7834;BME280;3962;42.696;23.354;2023-02-28T01:45:01;95641.44;;;6.32;100.00
7834;BME280;3962;42.696;23.354;2023-02-28T01:47:31;95644.22;;;6.30;100.00
7834;BME280;3962;42.696;23.354;2023-02-28T01:50:01;95648.88;;;6.27;100.00
7834;BME280;3962;42.696;23.354;2023-02-28T01:52:29;95647.69;;;6.07;100.00
7834;BME280;3962;42.696;23.354;2023-02-28T01:54:59;95644.16;;;5.96;100.00
7834;BME280;3962;42.696;23.354;2023-02-28T01:57:32;95649.47;;;6.07;100.00
7834;BME280;3962;42.696;23.354;2023-02-28T02:00:06;95648.72;;;6.17;100.00
7834;BME280;3962;42.696;23.354;2023-02-28T02:02:35;95648.88;;;6.27;100.00
7834;BME280;3962;42.696;23.354;2023-02-28T02:05:04;95650.78;;;6.25;100.00
7834;BME280;3962;42.696;23.354;2023-02-28T02:07:33;95644.44;;;6.27;100.00
7834;BME280;3962;42.696;23.354;2023-02-28T02:10:01;95646.09;;;6.28;100.00
7834;BME280;3962;42.696;23.354;2023-02-28T02:12:43;95637.13;;;6.31;100.00
7834;BME280;3962;42.696;23.354;2023-02-28T02:15:16;95645.22;;;6.17;100.00
7834;BME280;3962;42.696;23.354;2023-02-28T02:17:47;95636.34;;;6.18;100.00
7834;BME280;3962;42.696;23.354;2023-02-28T02:23:51;95634.19;;;6.23;100.00
7834;BME280;3962;42.696;23.354;2023-02-28T02:26:42;95633.81;;;6.16;100.00
7834;BME280;3962;42.696;23.354;2023-02-28T02:32:33;95639.81;;;6.18;100.00
7834;BME280;3962;42.696;23.354;2023-02-28T02:35:12;95650.28;;;6.20;100.00
7834;BME280;3962;42.696;23.354;2023-02-28T02:37:44;95644.75;;;6.23;100.00
7834;BME280;3962;42.696;23.354;2023-02-28T02:40:16;95648.03;;;6.26;100.00
7834;BME280;3962;42.696;23.354;2023-02-28T02:42:50;95647.06;;;6.27;100.00
7834;BME280;3962;42.696;23.354;2023-02-28T02:45:24;95656.69;;;6.28;100.00
7834;BME280;3962;42.696;23.354;2023-02-28T02:47:53;95652.53;;;6.37;100.00
7834;BME280;3962;42.696;23.354;2023-02-28T02:50:26;95667.53;;;6.36;100.00
7834;BME280;3962;42.696;23.354;2023-02-28T02:52:58;95658.97;;;6.33;100.00
7834;BME280;3962;42.696;23.354;2023-02-28T02:55:26;95654.44;;;6.35;100.00
7834;BME280;3962;42.696;23.354;2023-02-28T02:57:57;95657.81;;;6.37;100.00
7834;BME280;3962;42.696;23.354;2023-02-28T03:00:31;95661.34;;;6.48;100.00
7834;BME280;3962;42.696;23.354;2023-02-28T03:03:01;95659.31;;;6.52;100.00
7834;BME280;3962;42.696;23.354;2023-02-28T03:05:32;95667.97;;;6.54;100.00
7834;BME280;3962;42.696;23.354;2023-02-28T03:08:03;95672.19;;;6.56;100.00
7834;BME280;3962;42.696;23.354;2023-02-28T03:10:37;95675.19;;;6.52;100.00
7834;BME280;3962;42.696;23.354;2023-02-28T03:13:13;95683.03;;;6.41;100.00
7834;BME280;3962;42.696;23.354;2023-02-28T03:15:58;95680.28;;;6.42;100.00
7834;BME280;3962;42.696;23.354;2023-02-28T03:18:36;95678.72;;;6.40;100.00
7834;BME280;3962;42.696;23.354;2023-02-28T03:21:13;95697.00;;;6.43;100.00
7834;BME280;3962;42.696;23.354;2023-02-28T03:23:48;95697.69;;;6.34;100.00
7834;BME280;3962;42.696;23.354;2023-02-28T03:26:23;95691.25;;;6.25;100.00
7834;BME280;3962;42.696;23.354;2023-02-28T03:28:56;95691.59;;;6.21;100.00
7834;BME280;3962;42.696;23.354;2023-02-28T03:31:30;95697.13;;;6.18;100.00
7834;BME280;3962;42.696;23.354;2023-02-28T03:34:03;95702.16;;;6.21;100.00
7834;BME280;3962;42.696;23.354;2023-02-28T03:36:36;95705.53;;;6.23;100.00
7834;BME280;3962;42.696;23.354;2023-02-28T03:39:13;95709.53;;;6.28;100.00
7834;BME280;3962;42.696;23.354;2023-02-28T03:41:44;95711.09;;;6.31;100.00
7834;BME280;3962;42.696;23.354;2023-02-28T03:44:18;95703.78;;;6.34;100.00
7834;BME280;3962;42.696;23.354;2023-02-28T03:46:49;95712.34;;;6.38;100.00
7834;BME280;3962;42.696;23.354;2023-02-28T03:49:21;95712.44;;;6.36;100.00
7834;BME280;3962;42.696;23.354;2023-02-28T03:51:51;95711.09;;;6.31;100.00
7834;BME280;3962;42.696;23.354;2023-02-28T03:54:25;95721.66;;;6.31;100.00
7834;BME280;3962;42.696;23.354;2023-02-28T03:56:57;95717.34;;;6.30;100.00
7834;BME280;3962;42.696;23.354;2023-02-28T03:59:28;95719.13;;;6.29;100.00
7834;BME280;3962;42.696;23.354;2023-02-28T04:01:57;95717.59;;;6.27;100.00
7834;BME280;3962;42.696;23.354;2023-02-28T04:04:25;95716.19;;;6.34;100.00
7834;BME280;3962;42.696;23.354;2023-02-28T04:07:01;95716.91;;;6.36;100.00
7834;BME280;3962;42.696;23.354;2023-02-28T04:09:28;95717.25;;;6.31;100.00
7834;BME280;3962;42.696;23.354;2023-02-28T04:11:55;95710.28;;;6.30;100.00
7834;BME280;3962;42.696;23.354;2023-02-28T04:14:22;95711.44;;;6.26;100.00
7834;BME280;3962;42.696;23.354;2023-02-28T04:16:49;95710.28;;;6.30;100.00
7834;BME280;3962;42.696;23.354;2023-02-28T04:19:17;95712.06;;;6.30;100.00
7834;BME280;3962;42.696;23.354;2023-02-28T04:21:45;95713.41;;;6.35;100.00
7834;BME280;3962;42.696;23.354;2023-02-28T04:24:15;95703.69;;;6.36;100.00
7834;BME280;3962;42.696;23.354;2023-02-28T04:26:44;95704.66;;;6.35;100.00
7834;BME280;3962;42.696;23.354;2023-02-28T04:29:12;95711.09;;;6.31;100.00
7834;BME280;3962;42.696;23.354;2023-02-28T04:31:39;95715.66;;;6.29;100.00
7834;BME280;3962;42.696;23.354;2023-02-28T04:34:06;95712.97;;;6.18;100.00
7834;BME280;3962;42.696;23.354;2023-02-28T04:36:33;95720.75;;;6.19;100.00
7834;BME280;3962;42.696;23.354;2023-02-28T04:39:00;95720.13;;;6.16;100.00
7834;BME280;3962;42.696;23.354;2023-02-28T04:41:28;95722.91;;;6.14;100.00
7834;BME280;3962;42.696;23.354;2023-02-28T04:43:55;95711.91;;;6.08;100.00
7834;BME280;3962;42.696;23.354;2023-02-28T04:46:22;95716.56;;;6.04;100.00
7834;BME280;3962;42.696;23.354;2023-02-28T04:48:49;95729.16;;;6.01;100.00
7834;BME280;3962;42.696;23.354;2023-02-28T04:51:18;95738.91;;;5.88;100.00
7834;BME280;3962;42.696;23.354;2023-02-28T04:53:45;95747.91;;;5.85;100.00
7834;BME280;3962;42.696;23.354;2023-02-28T04:56:14;95746.28;;;5.95;100.00
7834;BME280;3962;42.696;23.354;2023-02-28T04:58:43;95735.00;;;5.93;100.00
7834;BME280;3962;42.696;23.354;2023-02-28T05:01:20;95739.72;;;6.01;100.00
7834;BME280;3962;42.696;23.354;2023-02-28T05:03:48;95743.75;;;6.06;100.00
7834;BME280;3962;42.696;23.354;2023-02-28T05:06:16;95734.03;;;5.94;100.00
7834;BME280;3962;42.696;23.354;2023-02-28T05:08:43;95733.09;;;5.95;100.00
7834;BME280;3962;42.696;23.354;2023-02-28T05:11:15;95729.06;;;6.02;100.00
7834;BME280;3962;42.696;23.354;2023-02-28T05:13:44;95734.09;;;6.05;100.00
7834;BME280;3962;42.696;23.354;2023-02-28T05:16:11;95739.38;;;6.05;100.00
7834;BME280;3962;42.696;23.354;2023-02-28T05:18:38;95734.44;;;6.01;100.00
7834;BME280;3962;42.696;23.354;2023-02-28T05:21:05;95743.94;;;6.03;100.00
7834;BME280;3962;42.696;23.354;2023-02-28T05:23:32;95752.81;;;6.02;100.00
7834;BME280;3962;42.696;23.354;2023-02-28T05:25:59;95759.16;;;6.00;100.00
7834;BME280;3962;42.696;23.354;2023-02-28T05:28:26;95755.06;;;5.96;100.00
7834;BME280;3962;42.696;23.354;2023-02-28T05:30:54;95756.53;;;5.87;100.00
7834;BME280;3962;42.696;23.354;2023-02-28T05:33:21;95753.03;;;5.74;100.00
7834;BME280;3962;42.696;23.354;2023-02-28T05:35:48;95762.44;;;5.78;100.00
7834;BME280;3962;42.696;23.354;2023-02-28T05:38:15;95771.75;;;5.84;100.00
7834;BME280;3962;42.696;23.354;2023-02-28T05:40:43;95765.53;;;5.85;100.00
7834;BME280;3962;42.696;23.354;2023-02-28T05:43:10;95771.09;;;5.93;100.00
7834;BME280;3962;42.696;23.354;2023-02-28T05:45:38;95760.97;;;5.99;100.00
7834;BME280;3962;42.696;23.354;2023-02-28T05:48:07;95766.13;;;6.01;100.00
7834;BME280;3962;42.696;23.354;2023-02-28T05:50:34;95778.38;;;6.02;100.00
7834;BME280;3962;42.696;23.354;2023-02-28T05:53:01;95771.84;;;6.07;100.00
7834;BME280;3962;42.696;23.354;2023-02-28T05:55:28;95777.13;;;6.07;100.00
7834;BME280;3962;42.696;23.354;2023-02-28T05:57:55;95784.94;;;6.09;100.00
7834;BME280;3962;42.696;23.354;2023-02-28T06:00:22;95789.88;;;6.13;100.00
7834;BME280;3962;42.696;23.354;2023-02-28T06:02:49;95788.31;;;6.11;100.00
7834;BME280;3962;42.696;23.354;2023-02-28T06:05:20;95784.50;;;6.15;100.00
7834;BME280;3962;42.696;23.354;2023-02-28T06:07:46;95781.22;;;6.11;100.00
7834;BME280;3962;42.696;23.354;2023-02-28T06:10:14;95772.97;;;6.16;100.00
7834;BME280;3962;42.696;23.354;2023-02-28T06:12:41;95777.97;;;6.08;100.00
7834;BME280;3962;42.696;23.354;2023-02-28T06:15:11;95777.84;;;6.09;100.00
7834;BME280;3962;42.696;23.354;2023-02-28T06:17:38;95778.72;;;6.10;100.00
7834;BME280;3962;42.696;23.354;2023-02-28T06:20:06;95774.03;;;6.13;100.00
7834;BME280;3962;42.696;23.354;2023-02-28T06:22:36;95776.38;;;6.18;100.00
7834;BME280;3962;42.696;23.354;2023-02-28T06:25:03;95785.75;;;6.22;100.00
7834;BME280;3962;42.696;23.354;2023-02-28T06:27:30;95781.63;;;6.30;100.00
7834;BME280;3962;42.696;23.354;2023-02-28T06:29:57;95775.47;;;6.30;100.00
7834;BME280;3962;42.696;23.354;2023-02-28T06:32:24;95778.84;;;6.32;100.00
7834;BME280;3962;42.696;23.354;2023-02-28T06:34:51;95793.97;;;6.30;100.00
7834;BME280;3962;42.696;23.354;2023-02-28T06:37:18;95787.00;;;6.29;100.00
7834;BME280;3962;42.696;23.354;2023-02-28T06:39:47;95800.22;;;6.29;100.00
7834;BME280;3962;42.696;23.354;2023-02-28T06:42:13;95797.47;;;6.30;100.00
7834;BME280;3962;42.696;23.354;2023-02-28T06:44:40;95790.59;;;6.28;100.00
7834;BME280;3962;42.696;23.354;2023-02-28T06:47:08;95796.00;;;6.26;100.00
7834;BME280;3962;42.696;23.354;2023-02-28T06:49:35;95797.25;;;6.33;100.00
7834;BME280;3962;42.696;23.354;2023-02-28T06:52:04;95798.59;;;6.39;100.00
7834;BME280;3962;42.696;23.354;2023-02-28T06:54:31;95801.34;;;6.37;100.00
7834;BME280;3962;42.696;23.354;2023-02-28T06:56:59;95793.38;;;6.14;100.00
7834;BME280;3962;42.696;23.354;2023-02-28T06:59:26;95800.16;;;6.18;100.00
7834;BME280;3962;42.696;23.354;2023-02-28T07:01:53;95802.66;;;6.19;100.00
7834;BME280;3962;42.696;23.354;2023-02-28T07:04:20;95802.63;;;6.32;100.00
7834;BME280;3962;42.696;23.354;2023-02-28T07:06:47;95806.84;;;6.34;100.00
7834;BME280;3962;42.696;23.354;2023-02-28T07:09:14;95804.50;;;6.42;100.00
7834;BME280;3962;42.696;23.354;2023-02-28T07:11:41;95802.16;;;6.50;100.00
7834;BME280;3962;42.696;23.354;2023-02-28T07:14:10;95792.66;;;6.48;100.00
7834;BME280;3962;42.696;23.354;2023-02-28T07:16:37;95806.28;;;6.54;100.00
7834;BME280;3962;42.696;23.354;2023-02-28T07:19:04;95799.31;;;6.53;100.00
7834;BME280;3962;42.696;23.354;2023-02-28T07:21:31;95796.44;;;6.56;100.00
7834;BME280;3962;42.696;23.354;2023-02-28T07:23:59;95791.44;;;6.64;100.00
7834;BME280;3962;42.696;23.354;2023-02-28T07:26:26;95802.31;;;6.72;100.00
7834;BME280;3962;42.696;23.354;2023-02-28T07:28:53;95801.44;;;6.72;100.00
7834;BME280;3962;42.696;23.354;2023-02-28T07:31:21;95809.28;;;6.73;100.00
7834;BME280;3962;42.696;23.354;2023-02-28T07:33:49;95806.47;;;6.87;100.00
7834;BME280;3962;42.696;23.354;2023-02-28T07:36:17;95808.34;;;6.98;100.00
7834;BME280;3962;42.696;23.354;2023-02-28T07:38:46;95802.47;;;7.05;100.00
7834;BME280;3962;42.696;23.354;2023-02-28T07:41:13;95802.28;;;7.19;100.00
7834;BME280;3962;42.696;23.354;2023-02-28T07:43:40;95799.41;;;7.22;100.00
7834;BME280;3962;42.696;23.354;2023-02-28T07:46:09;95805.81;;;7.30;100.00
7834;BME280;3962;42.696;23.354;2023-02-28T07:48:42;95804.97;;;7.30;99.81
7834;BME280;3962;42.696;23.354;2023-02-28T07:51:10;95810.19;;;7.42;100.00
7834;BME280;3962;42.696;23.354;2023-02-28T07:53:37;95805.03;;;7.52;99.13
7834;BME280;3962;42.696;23.354;2023-02-28T07:56:05;95799.28;;;7.58;99.56
7834;BME280;3962;42.696;23.354;2023-02-28T07:58:32;95793.53;;;7.64;98.82
7834;BME280;3962;42.696;23.354;2023-02-28T08:01:05;95801.13;;;7.68;98.85
7834;BME280;3962;42.696;23.354;2023-02-28T08:03:33;95791.25;;;7.70;98.01
7834;BME280;3962;42.696;23.354;2023-02-28T08:06:03;95798.72;;;7.76;98.27
7834;BME280;3962;42.696;23.354;2023-02-28T08:08:30;95793.53;;;7.75;98.35
7834;BME280;3962;42.696;23.354;2023-02-28T08:10:59;95798.50;;;8.12;98.40
7834;BME280;3962;42.696;23.354;2023-02-28T08:13:27;95794.06;;;8.24;97.23
7834;BME280;3962;42.696;23.354;2023-02-28T08:15:54;95800.81;;;8.39;96.77
7834;BME280;3962;42.696;23.354;2023-02-28T08:18:22;95789.84;;;8.43;95.33
7834;BME280;3962;42.696;23.354;2023-02-28T08:20:49;95795.16;;;8.54;95.46
7834;BME280;3962;42.696;23.354;2023-02-28T08:23:17;95798.25;;;8.70;95.10
7834;BME280;3962;42.696;23.354;2023-02-28T08:25:44;95790.16;;;8.83;94.62
7834;BME280;3962;42.696;23.354;2023-02-28T08:28:11;95798.19;;;8.92;93.85
7834;BME280;3962;42.696;23.354;2023-02-28T08:30:39;95800.94;;;9.02;94.18
7834;BME280;3962;42.696;23.354;2023-02-28T08:33:06;95800.66;;;9.16;94.00
7834;BME280;3962;42.696;23.354;2023-02-28T08:35:35;95800.97;;;9.33;94.36
7834;BME280;3962;42.696;23.354;2023-02-28T08:38:02;95799.69;;;9.69;93.91
7834;BME280;3962;42.696;23.354;2023-02-28T08:40:30;95801.47;;;9.89;92.65
7834;BME280;3962;42.696;23.354;2023-02-28T08:42:58;95804.22;;;9.98;91.03
7834;BME280;3962;42.696;23.354;2023-02-28T08:45:25;95802.03;;;10.03;90.90
7834;BME280;3962;42.696;23.354;2023-02-28T08:47:54;95799.41;;;10.13;91.19
7834;BME280;3962;42.696;23.354;2023-02-28T08:50:21;95792.19;;;10.24;91.39
7834;BME280;3962;42.696;23.354;2023-02-28T08:52:48;95797.22;;;10.48;91.35
7834;BME280;3962;42.696;23.354;2023-02-28T08:55:15;95793.03;;;10.55;91.07
7834;BME280;3962;42.696;23.354;2023-02-28T08:57:44;95797.53;;;10.64;91.44
7834;BME280;3962;42.696;23.354;2023-02-28T09:00:12;95803.97;;;10.61;91.22
7834;BME280;3962;42.696;23.354;2023-02-28T09:02:40;95795.06;;;10.72;90.57
7834;BME280;3962;42.696;23.354;2023-02-28T09:05:09;95805.63;;;11.01;88.40
7834;BME280;3962;42.696;23.354;2023-02-28T09:07:36;95807.72;;;11.07;88.75
7834;BME280;3962;42.696;23.354;2023-02-28T09:10:04;95800.84;;;11.05;88.06
7834;BME280;3962;42.696;23.354;2023-02-28T09:12:34;95800.00;;;10.95;88.38
7834;BME280;3962;42.696;23.354;2023-02-28T09:15:03;95803.34;;;10.97;88.17
7834;BME280;3962;42.696;23.354;2023-02-28T09:17:30;95788.66;;;11.12;88.81
7834;BME280;3962;42.696;23.354;2023-02-28T09:19:57;95801.34;;;11.67;85.48
7834;BME280;3962;42.696;23.354;2023-02-28T09:22:24;95796.84;;;11.39;85.14
7834;BME280;3962;42.696;23.354;2023-02-28T09:24:51;95795.00;;;11.01;86.66
7834;BME280;3962;42.696;23.354;2023-02-28T09:27:18;95805.31;;;10.95;88.02
7834;BME280;3962;42.696;23.354;2023-02-28T09:29:45;95794.84;;;10.93;88.21
7834;BME280;3962;42.696;23.354;2023-02-28T09:32:14;95789.41;;;11.14;87.42
7834;BME280;3962;42.696;23.354;2023-02-28T09:34:43;95789.28;;;11.34;86.28
7834;BME280;3962;42.696;23.354;2023-02-28T09:37:10;95798.22;;;11.43;84.55
7834;BME280;3962;42.696;23.354;2023-02-28T09:39:37;95789.13;;;11.55;84.48
7834;BME280;3962;42.696;23.354;2023-02-28T09:42:04;95795.16;;;11.47;83.96
7834;BME280;3962;42.696;23.354;2023-02-28T09:44:37;95787.16;;;11.47;85.40
7834;BME280;3962;42.696;23.354;2023-02-28T09:47:10;95801.38;;;11.57;85.01
7834;BME280;3962;42.696;23.354;2023-02-28T09:49:44;95793.78;;;11.81;84.13
7834;BME280;3962;42.696;23.354;2023-02-28T09:52:15;95783.50;;;11.48;84.37
7834;BME280;3962;42.696;23.354;2023-02-28T09:54:44;95797.53;;;11.41;83.63
7834;BME280;3962;42.696;23.354;2023-02-28T09:57:17;95786.59;;;11.44;83.58
7834;BME280;3962;42.696;23.354;2023-02-28T09:59:56;95780.00;;;11.38;83.85
7834;BME280;3962;42.696;23.354;2023-02-28T10:02:46;95780.84;;;11.29;84.19
7834;BME280;3962;42.696;23.354;2023-02-28T10:05:16;95778.88;;;11.31;83.49
7834;BME280;3962;42.696;23.354;2023-02-28T10:08:00;95784.78;;;11.44;83.22
7834;BME280;3962;42.696;23.354;2023-02-28T10:10:36;95779.47;;;11.73;83.13
7834;BME280;3962;42.696;23.354;2023-02-28T10:13:11;95772.28;;;11.92;82.00
7834;BME280;3962;42.696;23.354;2023-02-28T10:15:40;95773.00;;;11.75;80.80
7834;BME280;3962;42.696;23.354;2023-02-28T10:18:11;95777.16;;;11.97;80.16
7834;BME280;3962;42.696;23.354;2023-02-28T10:20:42;95765.81;;;11.95;80.13
7834;BME280;3962;42.696;23.354;2023-02-28T10:23:14;95767.81;;;11.74;80.18
7834;BME280;3962;42.696;23.354;2023-02-28T10:25:47;95762.34;;;11.66;80.41
7834;BME280;3962;42.696;23.354;2023-02-28T10:28:16;95757.13;;;11.83;79.53
7834;BME280;3962;42.696;23.354;2023-02-28T10:30:46;95761.72;;;12.10;79.29
7834;BME280;3962;42.696;23.354;2023-02-28T10:33:20;95754.75;;;12.26;77.69
7834;BME280;3962;42.696;23.354;2023-02-28T10:35:49;95746.91;;;12.25;77.03
7834;BME280;3962;42.696;23.354;2023-02-28T10:38:19;95747.72;;;12.35;77.02
7834;BME280;3962;42.696;23.354;2023-02-28T10:40:47;95748.53;;;12.72;77.36
7834;BME280;3962;42.696;23.354;2023-02-28T10:43:21;95742.34;;;12.71;75.98
7834;BME280;3962;42.696;23.354;2023-02-28T10:45:57;95731.66;;;12.44;77.28
7834;BME280;3962;42.696;23.354;2023-02-28T10:48:37;95726.16;;;12.19;78.05
7834;BME280;3962;42.696;23.354;2023-02-28T10:51:07;95718.59;;;12.14;78.14
7834;BME280;3962;42.696;23.354;2023-02-28T10:53:38;95715.03;;;12.23;78.77
7834;BME280;3962;42.696;23.354;2023-02-28T10:56:15;95711.78;;;11.93;78.90
7834;BME280;3962;42.696;23.354;2023-02-28T10:58:51;95707.44;;;11.92;79.70
7834;BME280;3962;42.696;23.354;2023-02-28T11:01:21;95709.19;;;12.10;79.63
7834;BME280;3962;42.696;23.354;2023-02-28T11:03:50;95698.13;;;11.59;80.27
7834;BME280;3962;42.696;23.354;2023-02-28T11:06:21;95707.19;;;11.76;80.99
7834;BME280;3962;42.696;23.354;2023-02-28T11:08:51;95695.59;;;11.58;80.99
7834;BME280;3962;42.696;23.354;2023-02-28T11:11:19;95706.66;;;11.63;81.47
7834;BME280;3962;42.696;23.354;2023-02-28T11:13:50;95698.91;;;11.79;81.84
7834;BME280;3962;42.696;23.354;2023-02-28T11:16:17;95695.19;;;11.99;79.66
7834;BME280;3962;42.696;23.354;2023-02-28T11:18:48;95695.25;;;11.89;78.58
7834;BME280;3962;42.696;23.354;2023-02-28T11:21:21;95693.16;;;11.83;79.57
7834;BME280;3962;42.696;23.354;2023-02-28T11:23:51;95697.75;;;11.91;81.25
7834;BME280;3962;42.696;23.354;2023-02-28T11:26:37;95694.25;;;11.90;80.42
7834;BME280;3962;42.696;23.354;2023-02-28T11:29:11;95687.50;;;12.23;79.70
7834;BME280;3962;42.696;23.354;2023-02-28T11:31:39;95689.53;;;12.11;77.02
7834;BME280;3962;42.696;23.354;2023-02-28T11:34:24;95691.13;;;12.31;77.50
7834;BME280;3962;42.696;23.354;2023-02-28T11:36:56;95693.31;;;12.45;75.70
7834;BME280;3962;42.696;23.354;2023-02-28T11:39:25;95683.81;;;12.33;76.29
7834;BME280;3962;42.696;23.354;2023-02-28T11:42:07;95681.81;;;12.08;77.63
7834;BME280;3962;42.696;23.354;2023-02-28T11:44:58;95684.53;;;11.99;78.37
7834;BME280;3962;42.696;23.354;2023-02-28T11:47:33;95677.84;;;12.22;77.80
7834;BME280;3962;42.696;23.354;2023-02-28T11:50:20;95689.00;;;12.08;76.43
7834;BME280;3962;42.696;23.354;2023-02-28T11:52:56;95678.63;;;12.05;76.15
7834;BME280;3962;42.696;23.354;2023-02-28T11:55:29;95677.59;;;12.15;76.71
7834;BME280;3962;42.696;23.354;2023-02-28T11:58:14;95676.34;;;12.10;75.97
7834;BME280;3962;42.696;23.354;2023-02-28T12:00:58;95675.66;;;12.08;76.74
7834;BME280;3962;42.696;23.354;2023-02-28T12:03:33;95673.00;;;12.08;76.42
7834;BME280;3962;42.696;23.354;2023-02-28T12:06:15;95679.19;;;11.99;76.43
7834;BME280;3962;42.696;23.354;2023-02-28T12:09:03;95675.56;;;12.00;76.39
7834;BME280;3962;42.696;23.354;2023-02-28T12:11:41;95666.41;;;12.02;76.29
7834;BME280;3962;42.696;23.354;2023-02-28T12:17:22;95672.00;;;12.36;75.54
7834;BME280;3962;42.696;23.354;2023-02-28T12:20:05;95663.25;;;12.16;75.04
7834;BME280;3962;42.696;23.354;2023-02-28T12:22:39;95666.50;;;12.10;76.24
7834;BME280;3962;42.696;23.354;2023-02-28T12:28:15;95664.91;;;12.27;75.37
7834;BME280;3962;42.696;23.354;2023-02-28T12:30:50;95669.94;;;12.30;75.62
7834;BME280;3962;42.696;23.354;2023-02-28T12:33:21;95666.03;;;12.24;74.90
7834;BME280;3962;42.696;23.354;2023-02-28T12:35:52;95673.13;;;12.33;74.82
7834;BME280;3962;42.696;23.354;2023-02-28T12:38:22;95657.94;;;12.16;74.53
7834;BME280;3962;42.696;23.354;2023-02-28T12:40:55;95666.69;;;12.09;75.80
7834;BME280;3962;42.696;23.354;2023-02-28T12:43:27;95661.28;;;12.18;75.75
7834;BME280;3962;42.696;23.354;2023-02-28T12:45:57;95653.94;;;12.03;75.58
7834;BME280;3962;42.696;23.354;2023-02-28T12:48:29;95660.53;;;11.99;75.64
7834;BME280;3962;42.696;23.354;2023-02-28T12:50:58;95656.38;;;12.14;75.05
7834;BME280;3962;42.696;23.354;2023-02-28T12:53:31;95652.34;;;12.10;75.08
7834;BME280;3962;42.696;23.354;2023-02-28T12:56:11;95659.88;;;12.24;75.05
7834;BME280;3962;42.696;23.354;2023-02-28T12:58:42;95659.44;;;12.28;74.52
7834;BME280;3962;42.696;23.354;2023-02-28T13:04:32;95657.03;;;12.25;75.02
7834;BME280;3962;42.696;23.354;2023-02-28T13:07:13;95658.38;;;12.12;75.75
7834;BME280;3962;42.696;23.354;2023-02-28T13:09:52;95655.16;;;12.08;75.97
7834;BME280;3962;42.696;23.354;2023-02-28T13:12:21;95647.81;;;12.20;74.95
7834;BME280;3962;42.696;23.354;2023-02-28T13:14:49;95657.19;;;12.24;74.33
7834;BME280;3962;42.696;23.354;2023-02-28T13:17:20;95653.00;;;12.21;74.86
7834;BME280;3962;42.696;23.354;2023-02-28T13:19:56;95644.00;;;12.22;74.58
7834;BME280;3962;42.696;23.354;2023-02-28T13:22:39;95649.34;;;12.22;74.40
7834;BME280;3962;42.696;23.354;2023-02-28T13:31:33;95628.50;;;12.08;75.99
7834;BME280;3962;42.696;23.354;2023-02-28T13:34:20;95642.31;;;12.21;75.21
7834;BME280;3962;42.696;23.354;2023-02-28T13:36:46;95649.47;;;12.21;75.46
7834;BME280;3962;42.696;23.354;2023-02-28T13:39:47;95643.16;;;12.22;75.51
7834;BME280;3962;42.696;23.354;2023-02-28T13:42:32;95646.97;;;12.46;74.28
7834;BME280;3962;42.696;23.354;2023-02-28T13:45:24;95649.16;;;12.51;74.19
7834;BME280;3962;42.696;23.354;2023-02-28T13:47:53;95643.59;;;12.62;74.29
7834;BME280;3962;42.696;23.354;2023-02-28T13:50:24;95629.53;;;12.42;73.69
7834;BME280;3962;42.696;23.354;2023-02-28T13:56:00;95622.75;;;12.30;74.06